createdAt,value
2022-12-03T00:01:52.595Z,-4.60
2022-12-03T00:04:19.525Z,-4.40
2022-12-03T00:06:46.430Z,-4.30
2022-12-03T00:09:13.589Z,-4.40
2022-12-03T00:11:40.438Z,-4.40
2022-12-03T00:14:07.392Z,-4.20
2022-12-03T00:16:34.361Z,-4.20
2022-12-03T00:19:01.273Z,-4.20
2022-12-03T00:21:29.504Z,-4.30
2022-12-03T00:23:56.545Z,-4.40
2022-12-03T00:26:23.549Z,-4.30
2022-12-03T00:28:51.245Z,-4.30
2022-12-03T00:31:18.626Z,-4.20
2022-12-03T00:33:45.571Z,-3.90
2022-12-03T00:36:12.587Z,-4.00
2022-12-03T00:38:39.489Z,-3.90
2022-12-03T00:41:06.618Z,-3.80
2022-12-03T00:43:33.551Z,-3.90
2022-12-03T00:46:00.616Z,-3.70
2022-12-03T00:48:27.614Z,-3.60
2022-12-03T00:50:54.512Z,-3.50
2022-12-03T00:53:21.414Z,-3.60
2022-12-03T00:55:50.900Z,-3.90
2022-12-03T00:58:18.362Z,-4.20
2022-12-03T01:00:45.268Z,-4.30
2022-12-03T01:03:12.206Z,-4.40
2022-12-03T01:05:39.114Z,-4.50
2022-12-03T01:08:06.085Z,-4.50
2022-12-03T01:10:32.972Z,-4.50
2022-12-03T01:12:59.890Z,-4.50
2022-12-03T01:15:26.737Z,-4.50
2022-12-03T01:17:54.539Z,-4.60
2022-12-03T01:20:21.460Z,-4.60
2022-12-03T01:22:48.393Z,-4.50
2022-12-03T01:25:15.359Z,-4.40
2022-12-03T01:27:42.484Z,-4.30
2022-12-03T01:30:09.581Z,-4.30
2022-12-03T01:32:36.561Z,-4.40
2022-12-03T01:35:03.777Z,-4.40
2022-12-03T01:37:30.624Z,-4.60
2022-12-03T01:39:57.495Z,-4.60
2022-12-03T01:42:30.382Z,-4.50
2022-12-03T01:44:58.682Z,-4.50
2022-12-03T01:47:31.778Z,-4.70
2022-12-03T01:50:04.238Z,-4.90
2022-12-03T01:52:36.952Z,-5.10
2022-12-03T01:55:06.301Z,-5.20
2022-12-03T01:57:33.169Z,-5.30
2022-12-03T02:00:00.807Z,-5.40
2022-12-03T02:02:28.890Z,-5.50
2022-12-03T02:04:56.874Z,-5.60
2022-12-03T02:07:30.084Z,-5.70
2022-12-03T02:09:57.867Z,-5.70
2022-12-03T02:12:37.149Z,-5.70
2022-12-03T02:15:05.167Z,-5.70
2022-12-03T02:17:32.156Z,-5.60
2022-12-03T02:19:59.618Z,-5.50
2022-12-03T02:22:32.550Z,-5.50
2022-12-03T02:24:59.698Z,-5.40
2022-12-03T02:27:28.384Z,-5.20
2022-12-03T02:29:55.345Z,-5.00
2022-12-03T02:32:23.625Z,-4.90
2022-12-03T02:34:51.140Z,-5.10
2022-12-03T02:37:30.917Z,-5.20
2022-12-03T02:39:59.982Z,-5.20
2022-12-03T02:42:35.923Z,-5.30
2022-12-03T02:45:20.969Z,-5.40
2022-12-03T02:47:54.186Z,-5.50
2022-12-03T02:50:23.550Z,-5.70
2022-12-03T02:52:52.291Z,-5.70
2022-12-03T02:55:19.473Z,-5.50
2022-12-03T02:57:48.566Z,-5.50
2022-12-03T03:00:16.212Z,-5.50
2022-12-03T03:02:43.580Z,-5.50
2022-12-03T03:05:11.964Z,-5.40
2022-12-03T03:07:39.768Z,-5.40
2022-12-03T03:10:07.518Z,-5.30
2022-12-03T03:12:39.023Z,-5.20
2022-12-03T03:15:07.089Z,-5.30
2022-12-03T03:17:34.188Z,-5.20
2022-12-03T03:20:01.285Z,-5.20
2022-12-03T03:22:35.519Z,-5.30
2022-12-03T03:25:02.863Z,-5.30
2022-12-03T03:27:30.190Z,-5.20
2022-12-03T03:29:58.557Z,-5.00
2022-12-03T03:32:26.515Z,-5.20
2022-12-03T03:34:53.951Z,-5.40
2022-12-03T03:37:21.170Z,-5.60
2022-12-03T03:39:48.098Z,-5.80
2022-12-03T03:42:15.120Z,-5.90
2022-12-03T03:44:42.066Z,-5.90
2022-12-03T03:47:09.083Z,-5.90
2022-12-03T03:49:36.170Z,-5.90
2022-12-03T03:52:03.830Z,-6.10
2022-12-03T03:54:31.825Z,-6.10
2022-12-03T03:56:58.768Z,-6.10
2022-12-03T03:59:25.775Z,-6.10
2022-12-03T04:01:52.912Z,-6.10
2022-12-03T04:04:21.471Z,-6.20
2022-12-03T04:06:48.607Z,-6.30
2022-12-03T04:09:15.816Z,-6.30
2022-12-03T04:12:01.484Z,-6.20
2022-12-03T04:14:28.349Z,-6.10
2022-12-03T04:16:55.550Z,-6.10
2022-12-03T04:19:22.535Z,-6.10
2022-12-03T04:22:08.250Z,-6.10
2022-12-03T04:24:35.114Z,-6.00
2022-12-03T04:27:20.776Z,-6.00
2022-12-03T04:29:47.719Z,-5.90
2022-12-03T04:32:36.545Z,-5.80
2022-12-03T04:35:22.122Z,-5.70
2022-12-03T04:37:49.113Z,-5.80
2022-12-03T04:40:34.789Z,-5.80
2022-12-03T04:43:01.989Z,-5.80
2022-12-03T04:45:28.928Z,-5.80
2022-12-03T04:47:55.916Z,-6.00
2022-12-03T04:50:22.843Z,-6.00
2022-12-03T04:52:49.876Z,-6.00
2022-12-03T04:55:16.906Z,-6.00
2022-12-03T04:57:43.764Z,-6.00
2022-12-03T05:00:11.026Z,-5.90
2022-12-03T05:02:37.929Z,-6.00
2022-12-03T05:05:04.987Z,-6.00
2022-12-03T05:07:32.037Z,-6.00
2022-12-03T05:09:58.919Z,-6.00
2022-12-03T05:12:25.850Z,-5.90
2022-12-03T05:14:53.099Z,-5.90
2022-12-03T05:17:20.108Z,-5.90
2022-12-03T05:20:05.657Z,-5.90
2022-12-03T05:22:32.607Z,-5.90
2022-12-03T05:24:59.517Z,-6.00
2022-12-03T05:27:26.944Z,-6.10
2022-12-03T05:29:53.939Z,-6.20
2022-12-03T05:32:21.027Z,-6.10
2022-12-03T05:34:47.939Z,-6.20
2022-12-03T05:37:14.781Z,-6.00
2022-12-03T05:39:41.738Z,-6.00
2022-12-03T05:42:27.957Z,-5.90
2022-12-03T05:44:56.453Z,-5.90
2022-12-03T05:47:23.560Z,-6.00
2022-12-03T05:49:50.413Z,-5.90
2022-12-03T05:52:17.283Z,-5.80
2022-12-03T05:54:44.155Z,-6.00
2022-12-03T05:57:11.038Z,-6.10
2022-12-03T05:59:37.951Z,-6.10
2022-12-03T06:02:04.933Z,-6.10
2022-12-03T06:04:31.854Z,-6.00
2022-12-03T06:06:58.866Z,-6.00
2022-12-03T06:09:25.741Z,-6.00
2022-12-03T06:11:54.299Z,-6.10
2022-12-03T06:14:21.849Z,-6.10
2022-12-03T06:16:49.014Z,-6.20
2022-12-03T06:19:15.994Z,-6.20
2022-12-03T06:21:42.901Z,-6.20
2022-12-03T06:24:09.854Z,-6.20
2022-12-03T06:26:36.781Z,-6.20
2022-12-03T06:29:04.635Z,-6.20
2022-12-03T06:31:34.559Z,-6.10
2022-12-03T06:34:01.510Z,-6.00
2022-12-03T06:36:28.548Z,-5.90
2022-12-03T06:38:55.434Z,-5.90
2022-12-03T06:41:22.273Z,-5.90
2022-12-03T06:43:49.180Z,-5.90
2022-12-03T06:46:16.250Z,-5.90
2022-12-03T06:48:43.140Z,-5.80
2022-12-03T06:51:10.103Z,-5.70
2022-12-03T06:53:36.989Z,-5.70
2022-12-03T06:56:04.218Z,-5.60
2022-12-03T06:58:31.508Z,-5.60
2022-12-03T07:00:58.427Z,-5.70
2022-12-03T07:03:25.372Z,-5.80
2022-12-03T07:05:52.378Z,-5.80
2022-12-03T07:08:19.382Z,-5.80
2022-12-03T07:10:46.314Z,-5.80
2022-12-03T07:13:13.169Z,-5.80
2022-12-03T07:15:40.060Z,-5.80
2022-12-03T07:18:06.963Z,-5.90
2022-12-03T07:20:33.902Z,-5.90
2022-12-03T07:23:00.765Z,-5.90
2022-12-03T07:25:27.691Z,-6.00
2022-12-03T07:27:54.650Z,-5.90
2022-12-03T07:30:22.089Z,-5.90
2022-12-03T07:32:49.223Z,-5.90
2022-12-03T07:35:16.150Z,-5.90
2022-12-03T07:37:43.050Z,-5.80
2022-12-03T07:40:10.272Z,-5.60
2022-12-03T07:42:37.217Z,-5.60
2022-12-03T07:45:04.272Z,-5.70
2022-12-03T07:47:31.461Z,-5.70
2022-12-03T07:49:58.352Z,-5.70
2022-12-03T07:52:25.276Z,-5.60
2022-12-03T07:54:58.028Z,-5.50
2022-12-03T07:57:25.031Z,-5.50
2022-12-03T07:59:51.851Z,-5.30
2022-12-03T08:02:21.604Z,-5.20
2022-12-03T08:04:48.857Z,-5.00
2022-12-03T08:07:15.702Z,-4.90
2022-12-03T08:09:43.077Z,-4.70
2022-12-03T08:12:17.426Z,-4.60
2022-12-03T08:14:46.556Z,-4.80
2022-12-03T08:17:14.694Z,-5.10
2022-12-03T08:19:45.375Z,-5.30
2022-12-03T08:22:15.946Z,-5.50
2022-12-03T08:24:43.501Z,-5.60
2022-12-03T08:27:16.599Z,-5.70
2022-12-03T08:29:43.513Z,-5.70
2022-12-03T08:32:13.928Z,-5.70
2022-12-03T08:34:42.961Z,-5.70
2022-12-03T08:37:17.327Z,-5.70
2022-12-03T08:39:50.862Z,-5.60
2022-12-03T08:42:42.657Z,-5.60
2022-12-03T08:45:22.099Z,-5.60
2022-12-03T08:47:49.008Z,-5.70
2022-12-03T08:50:38.775Z,-5.70
2022-12-03T08:53:24.360Z,-5.70
2022-12-03T08:55:55.908Z,-5.70
2022-12-03T08:58:41.902Z,-5.60
2022-12-03T09:01:08.932Z,-5.60
2022-12-03T09:03:36.160Z,-5.60
2022-12-03T09:06:03.197Z,-5.60
2022-12-03T09:08:30.603Z,-5.70
2022-12-03T09:10:57.488Z,-5.70
2022-12-03T09:13:24.382Z,-5.70
2022-12-03T09:15:51.222Z,-5.50
2022-12-03T09:18:18.126Z,-5.40
2022-12-03T09:20:45.038Z,-5.30
2022-12-03T09:23:12.230Z,-5.30
2022-12-03T09:25:39.112Z,-5.30
2022-12-03T09:28:06.005Z,-5.20
2022-12-03T09:30:33.041Z,-5.20
2022-12-03T09:33:00.306Z,-5.30
2022-12-03T09:35:27.852Z,-5.20
2022-12-03T09:37:54.800Z,-5.20
2022-12-03T09:40:22.288Z,-5.10
2022-12-03T09:42:49.921Z,-5.20
2022-12-03T09:45:16.986Z,-5.30
2022-12-03T09:47:45.811Z,-5.40
2022-12-03T09:50:13.661Z,-5.30
2022-12-03T09:52:40.623Z,-5.30
2022-12-03T09:55:18.015Z,-5.10
2022-12-03T09:57:45.082Z,-5.10
2022-12-03T10:00:19.956Z,-5.10
2022-12-03T10:02:47.808Z,-4.90
2022-12-03T10:05:15.074Z,-4.80
2022-12-03T10:07:42.420Z,-5.10
2022-12-03T10:10:19.710Z,-5.30
2022-12-03T10:12:46.944Z,-5.50
2022-12-03T10:15:15.129Z,-5.40
2022-12-03T10:17:42.029Z,-5.50
2022-12-03T10:20:13.043Z,-5.50
2022-12-03T10:22:39.992Z,-5.50
2022-12-03T10:25:12.549Z,-5.40
2022-12-03T10:27:40.067Z,-5.40
2022-12-03T10:30:17.589Z,-5.30
2022-12-03T10:32:45.639Z,-5.20
2022-12-03T10:35:12.564Z,-5.30
2022-12-03T10:37:59.786Z,-5.30
2022-12-03T10:40:29.044Z,-5.20
2022-12-03T10:43:14.989Z,-5.00
2022-12-03T10:45:42.815Z,-4.90
2022-12-03T10:48:27.566Z,-5.00
2022-12-03T10:51:26.922Z,-4.90
2022-12-03T10:53:54.474Z,-5.00
2022-12-03T10:56:24.009Z,-5.10
2022-12-03T10:58:51.096Z,-5.20
2022-12-03T11:01:19.600Z,-5.30
2022-12-03T11:03:47.420Z,-5.40
2022-12-03T11:06:19.045Z,-5.50
2022-12-03T11:08:53.005Z,-5.60
2022-12-03T11:11:26.396Z,-5.60
2022-12-03T11:13:56.353Z,-5.60
2022-12-03T11:16:41.715Z,-5.60
2022-12-03T11:19:17.540Z,-5.60
2022-12-03T11:22:02.928Z,-5.50
2022-12-03T11:24:30.838Z,-5.50
2022-12-03T11:26:57.692Z,-5.40
2022-12-03T11:29:57.198Z,-5.30
2022-12-03T11:32:39.697Z,-5.20
2022-12-03T11:35:14.228Z,-5.10
2022-12-03T11:37:41.098Z,-5.00
2022-12-03T11:40:17.172Z,-4.80
2022-12-03T11:42:45.472Z,-4.80
2022-12-03T11:45:15.341Z,-4.80
2022-12-03T11:48:01.190Z,-4.80
2022-12-03T11:50:28.202Z,-4.90
2022-12-03T11:52:58.945Z,-4.90
2022-12-03T11:55:28.793Z,-5.00
2022-12-03T11:58:00.202Z,-5.00
2022-12-03T12:00:27.550Z,-5.00
2022-12-03T12:02:55.756Z,-5.10
2022-12-03T12:05:33.299Z,-5.00
2022-12-03T12:08:01.267Z,-5.00
2022-12-03T12:10:38.428Z,-5.00
2022-12-03T12:13:05.389Z,-5.00
2022-12-03T12:15:52.645Z,-5.10
2022-12-03T12:18:38.439Z,-5.10
2022-12-03T12:21:24.169Z,-5.20
2022-12-03T12:23:51.254Z,-5.20
2022-12-03T12:26:18.234Z,-5.20
2022-12-03T12:28:45.222Z,-5.40
2022-12-03T12:31:12.280Z,-5.50
2022-12-03T12:33:39.219Z,-5.50
2022-12-03T12:36:08.496Z,-5.60
2022-12-03T12:38:35.377Z,-5.70
2022-12-03T12:41:05.173Z,-5.70
2022-12-03T12:43:33.839Z,-5.60
2022-12-03T12:46:18.546Z,-5.60
2022-12-03T12:48:48.793Z,-5.60
2022-12-03T12:51:18.930Z,-5.60
2022-12-03T12:53:46.169Z,-5.50
2022-12-03T12:56:42.599Z,-5.40
2022-12-03T12:59:11.203Z,-5.30
2022-12-03T13:01:38.298Z,-5.20
2022-12-03T13:04:31.688Z,-5.20
2022-12-03T13:06:59.600Z,-5.10
2022-12-03T13:09:27.114Z,-5.10
2022-12-03T13:11:55.779Z,-5.20
2022-12-03T13:14:23.962Z,-5.10
2022-12-03T13:16:52.069Z,-5.30
2022-12-03T13:19:23.555Z,-5.50
2022-12-03T13:21:51.500Z,-5.60
2022-12-03T13:24:32.627Z,-5.60
2022-12-03T13:27:00.673Z,-5.60
2022-12-03T13:29:27.887Z,-5.60
2022-12-03T13:31:54.896Z,-5.70
2022-12-03T13:34:42.636Z,-5.70
2022-12-03T13:37:14.460Z,-5.90
2022-12-03T13:39:45.048Z,-5.90
2022-12-03T13:42:37.880Z,-5.90
2022-12-03T13:45:14.091Z,-6.00
2022-12-03T13:47:44.180Z,-6.00
2022-12-03T13:50:19.775Z,-6.00
2022-12-03T13:52:47.327Z,-5.80
2022-12-03T13:55:18.663Z,-5.70
2022-12-03T13:57:45.549Z,-5.50
2022-12-03T14:00:12.650Z,-5.30
2022-12-03T14:02:39.765Z,-5.60
2022-12-03T14:05:07.038Z,-5.60
2022-12-03T14:07:33.933Z,-5.50
2022-12-03T14:10:00.837Z,-5.50
2022-12-03T14:12:27.757Z,-5.50
2022-12-03T14:14:54.787Z,-5.50
2022-12-03T14:17:21.739Z,-5.50
2022-12-03T14:19:48.621Z,-5.50
2022-12-03T14:22:15.581Z,-5.50
2022-12-03T14:24:42.441Z,-5.50
2022-12-03T14:27:09.304Z,-5.50
2022-12-03T14:29:36.178Z,-5.60
2022-12-03T14:32:03.290Z,-5.70
2022-12-03T14:34:30.504Z,-5.70
2022-12-03T14:36:57.518Z,-5.60
2022-12-03T14:39:25.640Z,-5.40
2022-12-03T14:42:11.477Z,-5.30
2022-12-03T14:44:38.599Z,-5.10
2022-12-03T14:47:05.469Z,-4.90
2022-12-03T14:49:32.423Z,-4.80
2022-12-03T14:51:59.520Z,-4.70
2022-12-03T14:54:26.460Z,-4.80
2022-12-03T14:56:53.304Z,-4.70
2022-12-03T14:59:25.845Z,-4.80
2022-12-03T15:01:54.658Z,-5.00
2022-12-03T15:04:21.722Z,-5.20
2022-12-03T15:06:48.610Z,-5.10
2022-12-03T15:09:15.666Z,-5.00
2022-12-03T15:11:46.111Z,-4.80
2022-12-03T15:14:13.816Z,-4.90
2022-12-03T15:16:40.901Z,-4.80
2022-12-03T15:19:07.768Z,-4.70
2022-12-03T15:21:35.141Z,-4.50
2022-12-03T15:24:02.310Z,-4.50
2022-12-03T15:26:29.647Z,-4.70
2022-12-03T15:28:56.509Z,-4.60
2022-12-03T15:31:39.397Z,-4.50
2022-12-03T15:34:06.360Z,-4.70
2022-12-03T15:36:33.362Z,-4.90
2022-12-03T15:39:00.257Z,-5.10
2022-12-03T15:41:30.382Z,-5.50
2022-12-03T15:43:58.197Z,-5.60
2022-12-03T15:46:25.474Z,-5.80
2022-12-03T15:48:52.962Z,-5.90
2022-12-03T15:51:19.910Z,-6.00
2022-12-03T15:53:46.952Z,-5.90
2022-12-03T15:56:14.262Z,-5.80
2022-12-03T15:58:41.523Z,-5.90
2022-12-03T16:01:09.198Z,-5.90
2022-12-03T16:03:36.472Z,-5.90
2022-12-03T16:06:03.576Z,-5.90
2022-12-03T16:08:30.531Z,-6.00
2022-12-03T16:10:57.545Z,-6.10
2022-12-03T16:13:24.684Z,-6.20
2022-12-03T16:15:51.734Z,-6.00
2022-12-03T16:18:18.675Z,-5.80
2022-12-03T16:20:45.652Z,-5.60
2022-12-03T16:23:12.507Z,-5.40
2022-12-03T16:25:39.421Z,-5.40
2022-12-03T16:28:06.348Z,-5.60
2022-12-03T16:30:33.519Z,-5.60
2022-12-03T16:33:00.520Z,-5.60
2022-12-03T16:35:27.388Z,-5.60
2022-12-03T16:37:54.237Z,-5.60
2022-12-03T16:40:21.115Z,-5.70
2022-12-03T16:42:48.000Z,-5.80
2022-12-03T16:45:38.216Z,-5.80
2022-12-03T16:48:05.303Z,-5.80
2022-12-03T16:50:32.445Z,-5.90
2022-12-03T16:52:59.325Z,-5.90
2022-12-03T16:55:26.271Z,-6.00
2022-12-03T16:57:53.249Z,-6.00
2022-12-03T17:00:22.018Z,-6.10
2022-12-03T17:02:52.340Z,-6.20
2022-12-03T17:05:19.595Z,-6.20
2022-12-03T17:07:46.521Z,-6.20
2022-12-03T17:10:13.716Z,-6.10
2022-12-03T17:13:08.087Z,-6.10
2022-12-03T17:15:27.594Z,-6.10
2022-12-03T17:17:54.503Z,-6.00
2022-12-03T17:20:21.424Z,-6.00
2022-12-03T17:22:48.427Z,-6.00
2022-12-03T17:25:15.553Z,-5.90
2022-12-03T17:27:45.342Z,-5.90
2022-12-03T17:30:12.883Z,-5.80
2022-12-03T17:32:39.884Z,-5.70
2022-12-03T17:35:07.322Z,-5.70
2022-12-03T17:37:34.438Z,-5.60
2022-12-03T17:40:01.723Z,-5.70
2022-12-03T17:42:28.554Z,-5.60
2022-12-03T17:44:55.445Z,-5.50
2022-12-03T17:47:24.590Z,-5.50
2022-12-03T17:49:52.303Z,-5.50
2022-12-03T17:52:19.528Z,-5.60
2022-12-03T17:55:10.051Z,-5.60
2022-12-03T17:57:33.559Z,-5.60
2022-12-03T18:00:00.608Z,-5.60
2022-12-03T18:02:27.499Z,-5.60
2022-12-03T18:04:54.406Z,-5.50
2022-12-03T18:07:21.402Z,-5.40
2022-12-03T18:09:48.298Z,-5.40
2022-12-03T18:12:15.202Z,-5.50
2022-12-03T18:14:42.094Z,-5.70
2022-12-03T18:17:08.984Z,-5.70
2022-12-03T18:19:35.941Z,-5.80
2022-12-03T18:22:02.870Z,-5.90
2022-12-03T18:24:29.861Z,-5.80
2022-12-03T18:26:57.207Z,-5.70
2022-12-03T18:29:24.210Z,-5.70
2022-12-03T18:31:51.163Z,-5.60
2022-12-03T18:34:18.055Z,-5.70
2022-12-03T18:36:45.583Z,-5.70
2022-12-03T18:39:18.544Z,-5.80
2022-12-03T18:41:45.446Z,-5.70
2022-12-03T18:44:12.603Z,-5.70
2022-12-03T18:46:56.095Z,-5.60
2022-12-03T18:49:23.637Z,-5.60
2022-12-03T18:51:56.055Z,-5.70
2022-12-03T18:54:26.209Z,-5.80
2022-12-03T18:56:53.151Z,-5.90
2022-12-03T18:59:20.305Z,-6.00
2022-12-03T19:01:47.817Z,-6.00
2022-12-03T19:04:14.777Z,-6.00
2022-12-03T19:06:41.706Z,-6.10
2022-12-03T19:09:09.170Z,-6.00
2022-12-03T19:11:36.110Z,-6.10
2022-12-03T19:14:03.222Z,-6.00
2022-12-03T19:16:30.356Z,-6.10
2022-12-03T19:18:57.801Z,-6.00
2022-12-03T19:21:26.399Z,-6.00
2022-12-03T19:24:22.796Z,-5.90
2022-12-03T19:26:43.274Z,-5.80
2022-12-03T19:29:10.863Z,-5.80
2022-12-03T19:31:38.131Z,-5.70
2022-12-03T19:34:05.344Z,-5.70
2022-12-03T19:36:32.321Z,-5.60
2022-12-03T19:39:00.074Z,-5.60
2022-12-03T19:41:28.144Z,-5.60
2022-12-03T19:43:56.099Z,-5.70
2022-12-03T19:46:23.865Z,-5.70
2022-12-03T19:48:50.926Z,-5.70
2022-12-03T19:51:33.578Z,-5.60
2022-12-03T19:54:02.146Z,-5.60
2022-12-03T19:56:30.551Z,-5.70
2022-12-03T19:58:57.873Z,-5.70
2022-12-03T20:01:25.885Z,-5.80
2022-12-03T20:03:53.739Z,-5.90
2022-12-03T20:06:25.283Z,-5.90
2022-12-03T20:08:59.507Z,-5.80
2022-12-03T20:11:27.966Z,-5.90
2022-12-03T20:13:56.568Z,-5.90
2022-12-03T20:16:23.881Z,-6.00
2022-12-03T20:18:51.842Z,-6.10
2022-12-03T20:21:19.279Z,-6.10
2022-12-03T20:23:46.990Z,-6.00
2022-12-03T20:26:15.255Z,-6.00
2022-12-03T20:28:42.495Z,-5.90
2022-12-03T20:31:11.996Z,-5.80
2022-12-03T20:33:40.032Z,-5.80
2022-12-03T20:36:07.412Z,-5.70
2022-12-03T20:38:34.566Z,-5.80
2022-12-03T20:41:05.857Z,-5.80
2022-12-03T20:43:32.937Z,-5.90
2022-12-03T20:46:10.697Z,-6.00
2022-12-03T20:48:37.849Z,-6.00
2022-12-03T20:51:05.790Z,-6.00
2022-12-03T20:53:32.889Z,-5.80
2022-12-03T20:56:00.588Z,-5.70
2022-12-03T20:58:27.970Z,-5.60
2022-12-03T21:00:55.285Z,-5.40
2022-12-03T21:03:22.461Z,-5.40
2022-12-03T21:05:49.674Z,-5.50
2022-12-03T21:08:27.920Z,-5.50
2022-12-03T21:11:07.444Z,-5.40
2022-12-03T21:13:34.512Z,-5.50
2022-12-03T21:16:08.984Z,-5.50
2022-12-03T21:18:36.156Z,-5.50
2022-12-03T21:21:03.317Z,-5.50
2022-12-03T21:23:30.919Z,-5.70
2022-12-03T21:26:05.293Z,-5.70
2022-12-03T21:28:32.391Z,-5.70
2022-12-03T21:31:00.357Z,-5.60
2022-12-03T21:33:27.454Z,-5.50
2022-12-03T21:35:54.727Z,-5.50
2022-12-03T21:38:21.703Z,-5.40
2022-12-03T21:40:48.727Z,-5.40
2022-12-03T21:43:15.805Z,-5.40
2022-12-03T21:45:42.904Z,-5.20
2022-12-03T21:48:09.871Z,-5.20
2022-12-03T21:50:36.833Z,-5.30
2022-12-03T21:53:03.962Z,-5.40
2022-12-03T21:55:30.878Z,-5.40
2022-12-03T21:57:57.817Z,-5.50
2022-12-03T22:00:24.754Z,-5.50
2022-12-03T22:02:54.443Z,-5.60
2022-12-03T22:05:21.741Z,-5.70
2022-12-03T22:07:48.829Z,-5.60
2022-12-03T22:10:15.777Z,-5.60
2022-12-03T22:12:42.805Z,-5.60
2022-12-03T22:15:14.869Z,-5.60
2022-12-03T22:17:45.356Z,-5.60
2022-12-03T22:20:12.671Z,-5.60
2022-12-03T22:22:39.543Z,-5.60
2022-12-03T22:25:06.595Z,-5.60
2022-12-03T22:27:33.608Z,-5.40
2022-12-03T22:30:00.467Z,-5.30
2022-12-03T22:32:27.419Z,-5.30
2022-12-03T22:34:54.380Z,-5.30
2022-12-03T22:37:21.305Z,-5.30
2022-12-03T22:39:48.199Z,-5.30
2022-12-03T22:42:15.153Z,-5.40
2022-12-03T22:44:42.107Z,-5.40
2022-12-03T22:47:09.236Z,-5.40
2022-12-03T22:49:37.247Z,-5.40
2022-12-03T22:52:04.162Z,-5.40
2022-12-03T22:54:31.227Z,-5.30
2022-12-03T22:56:58.162Z,-5.40
2022-12-03T22:59:25.091Z,-5.40
2022-12-03T23:01:51.966Z,-5.50
2022-12-03T23:04:18.976Z,-5.60
2022-12-03T23:06:46.095Z,-5.60
2022-12-03T23:09:13.021Z,-5.60
2022-12-03T23:11:40.376Z,-5.60
2022-12-03T23:14:07.538Z,-5.60
2022-12-03T23:16:34.546Z,-5.70
2022-12-03T23:19:02.226Z,-5.70
2022-12-03T23:21:30.928Z,-5.60
2022-12-03T23:24:01.978Z,-5.60
2022-12-03T23:26:29.568Z,-5.60
2022-12-03T23:28:56.691Z,-5.60
2022-12-03T23:31:28.082Z,-5.60
2022-12-03T23:33:55.924Z,-5.60
2022-12-03T23:36:24.172Z,-5.60
2022-12-03T23:38:51.256Z,-5.50
2022-12-03T23:41:19.508Z,-5.50
2022-12-03T23:43:46.417Z,-5.40
2022-12-03T23:46:14.843Z,-5.40
2022-12-03T23:48:42.271Z,-5.50
2022-12-03T23:51:10.412Z,-5.50
2022-12-03T23:53:37.638Z,-5.60
2022-12-03T23:56:05.409Z,-5.70
2022-12-03T23:58:32.547Z,-5.60
